Portada
METAR-TAF:

METAR-TAF

Aeroports :

Ahmedabad, Índia

latitud: 23-04N, longitud: 072-38E, altitud: 55 m

Observació

L'informe es va fer fa 41 minuts, a les 18:30 UTC
Vent calma
Temperatura 26°C
Humitat 70%
Pressió 1013 hPa
Visibilitat: 4000 m
calitja

METAR: VAAH 161830Z 00000KT 4000 HZ NSC 26/20 Q1013 NOSIG

Hora: 00:41 (19:11 UTC)

Pronòstic

L'informe es va fer fa 2 hores i 11 minuts, a les 17:00 UTC
Pronòstic vàlid del 16 a les 18 UTC al 17 a les 03 UTC
Vent kt del Nord
Visibilitat: 4000 m
calitja
Evolucionant progressivament
l' 17 a les 01 UTC al 17 a les 03 UTC
Vent 3 kt del Nord-Est
Visibilitat: 2000 m
boirina, calitja

TAF: VAAH 161700Z 1618/1703 00000KT 4000 HZ NSC BECMG 1701/1703 05003KT 2000 BR HZ

Observacions i pronòstics meteorològics de més de 4000 aeroports (METAR i TAF).

Les estacions disponibles són els punts grocs i vermells al mapa.

Posi el ratolí al punt desitjat per veure el nom de l'estació.

Feu clic per veure les observacions i els pronòstics meteorològics.

Per canviar el mapa: feu clic els botons verds amb una creu de color negre per apropar; al botó verd amb un guió per allunyar la imatge; o en les fletxes verdes per a mapes adjacents.


METAR-TAF: